createdAt,value
2023-04-13T00:00:45.446Z,0.20
2023-04-13T00:03:12.845Z,1.13
2023-04-13T00:05:40.097Z,0.20
2023-04-13T00:08:07.627Z,0.10
2023-04-13T00:10:36.516Z,0.20
2023-04-13T00:13:08.979Z,0.17
2023-04-13T00:15:38.138Z,0.20
2023-04-13T00:18:07.045Z,1.55
2023-04-13T00:20:33.934Z,0.30
2023-04-13T00:23:00.797Z,0.20
2023-04-13T00:25:27.767Z,0.68
2023-04-13T00:27:54.461Z,0.20
2023-04-13T00:30:22.127Z,0.55
2023-04-13T00:32:49.443Z,0.70
2023-04-13T00:35:19.249Z,0.20
2023-04-13T00:37:49.974Z,0.20
2023-04-13T00:40:19.593Z,0.20
2023-04-13T00:42:47.983Z,0.17
2023-04-13T00:45:15.689Z,1.13
2023-04-13T00:47:47.009Z,3.13
2023-04-13T00:50:15.112Z,0.98
2023-04-13T00:52:42.985Z,0.30
2023-04-13T00:55:09.820Z,0.43
2023-04-13T00:57:40.342Z,0.82
2023-04-13T01:00:12.770Z,0.20
2023-04-13T01:02:42.982Z,0.55
2023-04-13T01:05:12.681Z,0.20
2023-04-13T01:08:11.852Z,1.38
2023-04-13T01:10:56.807Z,0.45
2023-04-13T01:13:42.500Z,0.30
2023-04-13T01:16:34.126Z,0.20
2023-04-13T01:19:01.553Z,0.80
2023-04-13T01:21:31.468Z,0.38
2023-04-13T01:24:20.292Z,0.30
2023-04-13T01:27:22.944Z,1.67
2023-04-13T01:29:50.849Z,0.20
2023-04-13T01:32:17.958Z,0.28
2023-04-13T01:34:45.755Z,0.30
2023-04-13T01:37:12.650Z,0.28
2023-04-13T01:39:40.005Z,0.30
2023-04-13T01:42:06.562Z,0.68
2023-04-13T01:44:34.858Z,0.63
2023-04-13T01:47:16.326Z,0.30
2023-04-13T01:49:54.131Z,2.33
2023-04-13T01:52:22.462Z,1.17
2023-04-13T01:54:51.226Z,1.67
2023-04-13T01:57:18.082Z,0.85
2023-04-13T01:59:47.387Z,0.38
2023-04-13T02:02:16.997Z,3.00
2023-04-13T02:04:43.713Z,0.60
2023-04-13T02:07:12.435Z,1.23
2023-04-13T02:09:39.172Z,0.90
2023-04-13T02:12:06.069Z,0.30
2023-04-13T02:14:33.544Z,0.38
2023-04-13T02:17:00.174Z,0.80
2023-04-13T02:19:26.750Z,0.38
2023-04-13T02:21:53.390Z,0.43
2023-04-13T02:24:23.138Z,0.30
2023-04-13T02:26:49.769Z,0.60
2023-04-13T02:29:16.367Z,0.30
2023-04-13T02:31:44.364Z,0.70
2023-04-13T02:34:11.464Z,0.22
2023-04-13T02:36:38.675Z,0.20
2023-04-13T02:39:05.910Z,0.47
2023-04-13T02:41:32.799Z,0.77
2023-04-13T02:44:00.008Z,0.50
2023-04-13T02:46:28.108Z,1.30
2023-04-13T02:48:56.543Z,0.47
2023-04-13T02:51:23.150Z,0.75
2023-04-13T02:53:49.802Z,0.30
2023-04-13T02:56:16.950Z,0.30
2023-04-13T02:58:44.842Z,0.98
2023-04-13T03:01:11.511Z,0.47
2023-04-13T03:03:38.771Z,1.55
2023-04-13T03:06:05.636Z,0.32
2023-04-13T03:08:32.189Z,0.30
2023-04-13T03:10:59.155Z,0.95
2023-04-13T03:13:26.425Z,1.30
2023-04-13T03:15:53.043Z,0.20
2023-04-13T03:18:19.640Z,0.43
2023-04-13T03:20:49.438Z,0.30
2023-04-13T03:23:16.348Z,0.93
2023-04-13T03:25:42.909Z,0.55
2023-04-13T03:28:09.507Z,0.20
2023-04-13T03:30:36.166Z,0.30
2023-04-13T03:33:03.088Z,0.43
2023-04-13T03:35:29.682Z,0.30
2023-04-13T03:37:56.323Z,0.75
2023-04-13T03:40:25.744Z,0.50
2023-04-13T03:42:52.397Z,0.63
2023-04-13T03:45:19.047Z,0.35
2023-04-13T03:47:46.036Z,1.27
2023-04-13T03:50:12.794Z,0.65
2023-04-13T03:52:39.495Z,0.73
2023-04-13T03:55:06.803Z,1.70
2023-04-13T03:57:34.258Z,0.57
2023-04-13T04:00:00.909Z,1.20
2023-04-13T04:02:27.810Z,0.77
2023-04-13T04:04:54.730Z,1.58
2023-04-13T04:07:23.379Z,0.88
2023-04-13T04:09:50.331Z,0.40
2023-04-13T04:12:17.164Z,1.15
2023-04-13T04:14:43.778Z,1.75
2023-04-13T04:17:10.540Z,1.30
2023-04-13T04:19:37.692Z,0.50
2023-04-13T04:22:04.379Z,1.02
2023-04-13T04:24:31.000Z,0.50
2023-04-13T04:26:58.986Z,0.93
2023-04-13T04:29:34.515Z,0.90
2023-04-13T04:32:02.124Z,0.40
2023-04-13T04:34:29.126Z,0.95
2023-04-13T04:37:00.214Z,0.70
2023-04-13T04:42:07.641Z,0.68
2023-04-13T04:44:34.237Z,0.38
2023-04-13T04:47:00.806Z,0.50
2023-04-13T04:49:28.605Z,1.38
2023-04-13T04:51:56.048Z,1.75
2023-04-13T04:54:22.870Z,2.22
2023-04-13T04:56:50.231Z,1.48
2023-04-13T04:59:18.313Z,1.42
2023-04-13T05:01:45.118Z,0.43
2023-04-13T05:04:12.159Z,0.60
2023-04-13T05:06:41.623Z,1.75
2023-04-13T05:09:09.011Z,0.77
2023-04-13T05:11:39.150Z,0.40
2023-04-13T05:14:06.061Z,1.60
2023-04-13T05:16:34.271Z,1.15
2023-04-13T05:19:01.743Z,0.60
2023-04-13T05:21:28.758Z,1.65
2023-04-13T05:23:55.329Z,0.80
2023-04-13T05:26:22.151Z,0.73
2023-04-13T05:28:48.702Z,0.98
2023-04-13T05:31:16.180Z,1.15
2023-04-13T05:33:42.873Z,1.40
2023-04-13T05:36:09.868Z,1.90
2023-04-13T05:38:36.505Z,1.67
2023-04-13T05:41:03.337Z,1.45
2023-04-13T05:43:30.532Z,0.85
2023-04-13T05:45:57.234Z,2.05
2023-04-13T05:48:24.030Z,1.13
2023-04-13T05:50:50.682Z,0.95
2023-04-13T05:53:17.310Z,1.83
2023-04-13T05:55:45.158Z,1.75
2023-04-13T05:58:13.436Z,1.02
2023-04-13T06:00:40.107Z,0.65
2023-04-13T06:03:07.626Z,2.03
2023-04-13T06:05:36.664Z,2.15
2023-04-13T06:08:03.785Z,1.33
2023-04-13T06:10:30.773Z,1.05
2023-04-13T06:12:57.333Z,1.65
2023-04-13T06:15:24.226Z,2.25
2023-04-13T06:17:52.770Z,2.40
2023-04-13T06:20:23.040Z,4.43
2023-04-13T06:22:49.864Z,2.85
2023-04-13T06:25:16.712Z,1.02
2023-04-13T06:27:44.260Z,2.17
2023-04-13T06:30:12.215Z,3.30
2023-04-13T06:32:39.163Z,1.48
2023-04-13T06:35:06.524Z,2.92
2023-04-13T06:37:35.692Z,4.18
2023-04-13T06:40:23.223Z,3.83
2023-04-13T06:42:49.803Z,0.70
2023-04-13T06:45:16.377Z,2.35
2023-04-13T06:47:43.278Z,3.33
2023-04-13T06:50:14.038Z,1.52
2023-04-13T06:52:43.922Z,2.63
2023-04-13T06:55:11.004Z,2.35
2023-04-13T06:57:37.686Z,5.03
2023-04-13T07:00:12.607Z,3.05
2023-04-13T07:02:48.972Z,2.53
2023-04-13T07:05:16.019Z,3.60
2023-04-13T07:07:42.645Z,1.40
2023-04-13T07:10:09.445Z,2.72
2023-04-13T07:12:36.323Z,2.28
2023-04-13T07:15:02.963Z,1.92
2023-04-13T07:17:30.623Z,2.33
2023-04-13T07:19:57.280Z,1.83
2023-04-13T07:22:23.933Z,3.50
2023-04-13T07:24:50.619Z,0.95
2023-04-13T07:27:17.223Z,5.82
2023-04-13T07:29:43.848Z,2.72
2023-04-13T07:32:10.421Z,1.48
2023-04-13T07:34:38.091Z,2.50
2023-04-13T07:37:04.725Z,2.42
2023-04-13T07:39:32.381Z,2.92
2023-04-13T07:41:59.022Z,1.55
2023-04-13T07:44:26.045Z,4.97
2023-04-13T07:46:54.723Z,2.08
2023-04-13T07:49:22.781Z,2.58
2023-04-13T07:51:52.364Z,2.50
2023-04-13T07:54:18.955Z,2.03
2023-04-13T07:56:45.562Z,4.60
2023-04-13T07:59:12.121Z,3.78
2023-04-13T08:01:39.338Z,3.30
2023-04-13T08:04:06.430Z,2.38
2023-04-13T08:06:34.629Z,2.67
2023-04-13T08:09:01.663Z,4.25
2023-04-13T08:11:28.209Z,3.58
2023-04-13T08:13:55.125Z,3.17
2023-04-13T08:16:21.910Z,3.13
2023-04-13T08:18:48.510Z,3.47
2023-04-13T08:21:15.473Z,0.73
2023-04-13T08:23:42.913Z,4.00
2023-04-13T08:26:19.938Z,1.77
2023-04-13T08:28:48.127Z,2.40
2023-04-13T08:31:15.901Z,5.47
2023-04-13T08:33:43.746Z,3.28
2023-04-13T08:36:10.631Z,3.33
2023-04-13T08:38:37.610Z,2.78
2023-04-13T08:41:04.627Z,2.33
2023-04-13T08:43:35.802Z,2.28
2023-04-13T08:46:06.611Z,4.13
2023-04-13T08:48:53.549Z,3.55
2023-04-13T08:51:22.601Z,1.92
2023-04-13T08:53:49.868Z,2.70
2023-04-13T08:56:16.838Z,2.40
2023-04-13T08:58:47.654Z,6.55
2023-04-13T09:01:16.278Z,4.78
2023-04-13T09:03:54.812Z,2.30
2023-04-13T09:06:29.960Z,2.40
2023-04-13T09:08:57.471Z,1.52
2023-04-13T09:11:25.334Z,3.72
2023-04-13T09:13:52.334Z,3.28
2023-04-13T09:16:19.565Z,1.48
2023-04-13T09:18:53.744Z,3.05
2023-04-13T09:21:20.529Z,1.45
2023-04-13T09:23:59.734Z,1.30
2023-04-13T09:26:27.159Z,3.10
2023-04-13T09:28:57.702Z,4.55
2023-04-13T09:31:25.094Z,1.95
2023-04-13T09:33:52.996Z,3.60
2023-04-13T09:36:21.534Z,3.05
2023-04-13T09:38:56.165Z,6.75
2023-04-13T09:41:31.983Z,3.60
2023-04-13T09:44:03.118Z,3.95
2023-04-13T09:46:29.852Z,1.10
2023-04-13T09:49:02.556Z,2.55
2023-04-13T09:51:42.034Z,1.27
2023-04-13T09:54:09.044Z,0.70
2023-04-13T09:56:52.905Z,2.90
2023-04-13T09:59:19.883Z,2.45
2023-04-13T10:01:47.488Z,1.85
2023-04-13T10:04:15.745Z,2.17
2023-04-13T10:06:46.604Z,1.60
2023-04-13T10:09:13.256Z,1.95
2023-04-13T10:11:51.691Z,2.95
2023-04-13T10:14:22.093Z,4.93
2023-04-13T10:16:54.801Z,2.47
2023-04-13T10:19:24.863Z,3.33
2023-04-13T10:21:52.921Z,2.45
2023-04-13T10:24:20.083Z,2.28
2023-04-13T10:26:46.811Z,2.50
2023-04-13T10:29:15.003Z,2.13
2023-04-13T10:31:49.451Z,3.63
2023-04-13T10:34:27.893Z,2.22
2023-04-13T10:37:06.313Z,3.72
2023-04-13T10:39:36.217Z,4.07
2023-04-13T10:42:05.896Z,5.18
2023-04-13T10:44:48.672Z,4.03
2023-04-13T10:47:22.012Z,2.72
2023-04-13T10:49:50.685Z,4.45
2023-04-13T10:52:17.747Z,2.95
2023-04-13T10:54:45.121Z,2.28
2023-04-13T10:57:12.426Z,1.80
2023-04-13T11:02:16.522Z,4.20
2023-04-13T11:04:46.242Z,1.20
2023-04-13T11:07:17.643Z,1.85
2023-04-13T11:09:45.653Z,2.85
2023-04-13T11:12:13.283Z,3.33
2023-04-13T11:14:40.067Z,1.60
2023-04-13T11:17:08.198Z,3.45
2023-04-13T11:19:49.932Z,4.68
2023-04-13T11:22:22.696Z,1.52
2023-04-13T11:24:51.082Z,2.63
2023-04-13T11:27:17.752Z,16.23
2023-04-13T11:29:44.631Z,4.55
2023-04-13T11:32:21.135Z,1.77
2023-04-13T11:34:51.369Z,2.15
2023-04-13T11:37:19.631Z,3.47
2023-04-13T11:39:46.512Z,1.73
2023-04-13T11:42:13.586Z,2.90
2023-04-13T11:44:40.289Z,2.72
2023-04-13T11:47:08.960Z,2.53
2023-04-13T11:49:36.071Z,3.80
2023-04-13T11:52:03.364Z,2.45
2023-04-13T11:54:30.563Z,2.63
2023-04-13T11:56:57.672Z,1.83
2023-04-13T11:59:25.076Z,3.33
2023-04-13T12:02:01.568Z,3.35
2023-04-13T12:04:41.274Z,2.00
2023-04-13T12:07:15.504Z,1.50
2023-04-13T12:20:04.642Z,3.47
2023-04-13T12:22:51.627Z,2.58
2023-04-13T12:25:24.804Z,0.98
2023-04-13T12:27:53.411Z,1.35
2023-04-13T12:30:21.756Z,2.28
2023-04-13T12:32:54.749Z,1.55
2023-04-13T12:35:21.642Z,2.78
2023-04-13T12:37:49.078Z,3.97
2023-04-13T12:40:18.657Z,2.05
2023-04-13T12:42:46.654Z,3.63
2023-04-13T12:45:14.242Z,5.85
2023-04-13T12:47:41.780Z,3.92
2023-04-13T12:50:10.886Z,3.45
2023-04-13T12:52:40.926Z,6.07
2023-04-13T12:55:08.427Z,1.83
2023-04-13T12:57:35.032Z,2.97
2023-04-13T13:00:01.662Z,3.13
2023-04-13T13:02:32.533Z,6.97
2023-04-13T13:04:59.638Z,4.63
2023-04-13T13:07:27.687Z,3.08
2023-04-13T13:09:54.264Z,2.38
2023-04-13T13:12:20.865Z,3.20
2023-04-13T13:14:47.457Z,4.10
2023-04-13T13:17:14.208Z,4.65
2023-04-13T13:19:40.953Z,4.15
2023-04-13T13:22:07.681Z,4.13
2023-04-13T13:24:34.473Z,4.68
2023-04-13T13:27:34.242Z,1.27
2023-04-13T13:29:47.646Z,6.65
2023-04-13T13:32:14.494Z,4.20
2023-04-13T13:34:41.733Z,3.95
2023-04-13T13:37:08.921Z,5.43
2023-04-13T13:39:37.540Z,2.92
2023-04-13T13:42:04.639Z,2.65
2023-04-13T13:44:31.337Z,5.22
2023-04-13T13:46:57.917Z,2.70
2023-04-13T13:49:25.358Z,3.92
2023-04-13T13:51:52.112Z,1.60
2023-04-13T13:54:20.266Z,2.00
2023-04-13T13:56:46.975Z,4.18
2023-04-13T13:59:13.620Z,2.15
2023-04-13T14:01:41.167Z,1.73
2023-04-13T14:04:08.065Z,4.18
2023-04-13T14:06:34.791Z,3.20
2023-04-13T14:09:02.174Z,1.60
2023-04-13T14:11:29.727Z,3.65
2023-04-13T14:13:56.497Z,1.08
2023-04-13T14:16:23.548Z,5.47
2023-04-13T14:18:50.160Z,5.60
2023-04-13T14:21:21.311Z,4.35
2023-04-13T14:23:51.374Z,8.38
2023-04-13T14:26:18.005Z,4.05
2023-04-13T14:28:44.763Z,2.75
2023-04-13T14:31:11.423Z,4.05
2023-04-13T14:33:38.510Z,3.60
2023-04-13T14:36:05.250Z,3.60
2023-04-13T14:38:31.916Z,3.92
2023-04-13T14:40:58.497Z,2.35
2023-04-13T14:43:25.341Z,4.93
2023-04-13T14:45:55.267Z,5.07
2023-04-13T14:48:22.183Z,14.00
2023-04-13T14:50:49.665Z,6.40
2023-04-13T14:53:17.678Z,9.57
2023-04-13T14:55:46.080Z,5.45
2023-04-13T14:58:12.867Z,6.63
2023-04-13T15:00:39.655Z,6.80
2023-04-13T15:03:07.953Z,2.95
2023-04-13T15:05:48.430Z,4.28
2023-04-13T15:08:16.837Z,3.10
2023-04-13T15:10:43.621Z,5.32
2023-04-13T15:13:10.291Z,4.93
2023-04-13T15:15:38.309Z,3.75
2023-04-13T15:18:06.474Z,2.67
2023-04-13T15:20:33.217Z,5.05
2023-04-13T15:22:59.876Z,2.35
2023-04-13T15:25:26.732Z,3.80
2023-04-13T15:27:58.088Z,3.40
2023-04-13T15:30:32.693Z,2.58
2023-04-13T15:33:02.297Z,7.88
2023-04-13T15:35:30.060Z,3.90
2023-04-13T15:37:56.920Z,4.68
2023-04-13T15:40:28.070Z,5.43
2023-04-13T15:42:54.723Z,3.17
2023-04-13T15:45:21.415Z,4.22
2023-04-13T15:47:48.034Z,2.75
2023-04-13T15:50:14.798Z,3.03
2023-04-13T15:52:42.717Z,1.67
2023-04-13T15:55:10.060Z,4.05
2023-04-13T15:57:37.235Z,7.30
2023-04-13T16:00:08.659Z,2.83
2023-04-13T16:02:36.184Z,5.15
2023-04-13T16:05:03.199Z,6.45
2023-04-13T16:07:29.849Z,5.40
2023-04-13T16:09:58.128Z,2.67
2023-04-13T16:12:31.899Z,5.60
2023-04-13T16:15:07.964Z,4.72
2023-04-13T16:17:35.029Z,3.53
2023-04-13T16:20:06.452Z,4.78
2023-04-13T16:22:35.037Z,2.72
2023-04-13T16:25:05.431Z,5.55
2023-04-13T16:27:32.577Z,3.05
2023-04-13T16:29:59.783Z,7.38
2023-04-13T16:32:26.509Z,2.75
2023-04-13T16:34:53.224Z,6.07
2023-04-13T16:37:19.795Z,3.42
2023-04-13T16:39:47.592Z,3.10
2023-04-13T16:42:14.764Z,3.00
2023-04-13T16:44:41.416Z,4.75
2023-04-13T16:47:08.034Z,3.50
2023-04-13T16:49:34.696Z,2.92
2023-04-13T16:52:01.594Z,4.70
2023-04-13T16:54:28.202Z,4.25
2023-04-13T16:56:54.802Z,5.60
2023-04-13T16:59:21.494Z,5.10
2023-04-13T17:01:48.111Z,2.72
2023-04-13T17:04:14.842Z,4.65
2023-04-13T17:06:41.890Z,4.88
2023-04-13T17:09:08.606Z,2.85
2023-04-13T17:11:35.523Z,3.90
2023-04-13T17:14:02.220Z,5.93
2023-04-13T17:16:29.642Z,2.65
2023-04-13T17:18:56.885Z,4.18
2023-04-13T17:21:23.880Z,5.13
2023-04-13T17:23:50.630Z,4.13
2023-04-13T17:26:17.243Z,2.80
2023-04-13T17:28:43.788Z,4.60
2023-04-13T17:31:10.579Z,5.75
2023-04-13T17:33:37.209Z,6.75
2023-04-13T17:36:03.959Z,3.67
2023-04-13T17:38:30.802Z,3.85
2023-04-13T17:40:57.465Z,9.68
2023-04-13T17:43:24.070Z,9.65
2023-04-13T17:45:50.729Z,8.27
2023-04-13T17:48:17.483Z,8.77
2023-04-13T17:50:44.212Z,9.40
2023-04-13T17:53:11.346Z,4.72
2023-04-13T17:55:39.097Z,10.43
2023-04-13T17:58:05.843Z,8.60
2023-04-13T18:00:32.884Z,5.32
2023-04-13T18:03:00.238Z,7.15
2023-04-13T18:05:28.335Z,3.55
2023-04-13T18:07:55.008Z,4.18
2023-04-13T18:10:21.653Z,6.25
2023-04-13T18:12:49.507Z,3.83
2023-04-13T18:15:16.862Z,4.90
2023-04-13T18:17:43.624Z,3.63
2023-04-13T18:20:10.946Z,1.83
2023-04-13T18:22:37.586Z,3.70
2023-04-13T18:25:04.490Z,4.68
2023-04-13T18:27:31.743Z,4.13
2023-04-13T18:29:58.306Z,2.72
2023-04-13T18:32:24.965Z,3.97
2023-04-13T18:34:52.323Z,4.20
2023-04-13T18:37:19.001Z,4.05
2023-04-13T18:39:45.668Z,6.10
2023-04-13T18:42:12.287Z,4.57
2023-04-13T18:44:38.937Z,4.93
2023-04-13T18:47:05.722Z,6.32
2023-04-13T18:49:32.471Z,4.35
2023-04-13T18:51:59.345Z,4.03
2023-04-13T18:54:25.914Z,4.57
2023-04-13T18:56:52.517Z,3.25
2023-04-13T18:59:19.198Z,2.85
2023-04-13T19:01:46.659Z,6.47
2023-04-13T19:04:13.532Z,5.75
2023-04-13T19:06:40.244Z,5.07
2023-04-13T19:09:07.087Z,4.07
2023-04-13T19:11:53.412Z,5.03
2023-04-13T19:14:23.160Z,2.75
2023-04-13T19:16:52.506Z,3.45
2023-04-13T19:19:19.427Z,5.18
2023-04-13T19:21:46.319Z,4.43
2023-04-13T19:24:14.300Z,2.25
2023-04-13T19:26:41.176Z,2.38
2023-04-13T19:29:09.831Z,5.07
2023-04-13T19:31:38.313Z,4.85
2023-04-13T19:34:06.247Z,6.05
2023-04-13T19:36:32.921Z,5.50
2023-04-13T19:39:08.755Z,5.47
2023-04-13T19:41:41.363Z,7.75
2023-04-13T19:44:09.297Z,5.75
2023-04-13T19:46:36.439Z,7.10
2023-04-13T19:49:03.216Z,3.72
2023-04-13T19:51:33.474Z,6.68
2023-04-13T19:54:02.862Z,6.43
2023-04-13T19:56:30.875Z,3.65
2023-04-13T19:58:58.523Z,7.53
2023-04-13T20:01:25.911Z,7.60
2023-04-13T20:03:52.768Z,7.97
2023-04-13T20:06:19.569Z,4.18
2023-04-13T20:08:46.224Z,5.82
2023-04-13T20:11:12.961Z,7.03
2023-04-13T20:13:40.677Z,6.18
2023-04-13T20:16:08.146Z,7.13
2023-04-13T20:18:35.178Z,4.68
2023-04-13T20:21:02.061Z,6.38
2023-04-13T20:23:33.474Z,4.97
2023-04-13T20:26:00.324Z,3.40
2023-04-13T20:28:29.532Z,6.60
2023-04-13T20:30:56.150Z,6.95
2023-04-13T20:33:23.011Z,4.68
2023-04-13T20:35:50.082Z,4.97
2023-04-13T20:38:23.337Z,4.60
2023-04-13T20:40:50.581Z,3.47
2023-04-13T20:43:17.751Z,4.55
2023-04-13T20:45:45.444Z,4.50
2023-04-13T20:50:48.039Z,3.78
2023-04-13T20:53:17.933Z,4.70
2023-04-13T20:55:44.584Z,6.70
2023-04-13T20:58:11.390Z,4.13
2023-04-13T21:00:38.482Z,6.05
2023-04-13T21:03:08.960Z,8.15
2023-04-13T21:05:36.400Z,4.55
2023-04-13T21:08:04.353Z,3.13
2023-04-13T21:10:31.162Z,4.80
2023-04-13T21:12:57.861Z,3.67
2023-04-13T21:15:24.485Z,3.75
2023-04-13T21:17:51.084Z,7.43
2023-04-13T21:20:17.731Z,5.53
2023-04-13T21:22:44.291Z,4.72
2023-04-13T21:25:11.036Z,5.47
2023-04-13T21:27:37.619Z,4.20
2023-04-13T21:30:04.793Z,2.85
2023-04-13T21:32:32.616Z,5.95
2023-04-13T21:35:00.581Z,4.43
2023-04-13T21:37:29.318Z,4.53
2023-04-13T21:39:57.742Z,5.28
2023-04-13T21:42:24.332Z,4.53
2023-04-13T21:44:51.502Z,3.83
2023-04-13T21:47:18.103Z,3.33
2023-04-13T21:49:44.858Z,4.07
2023-04-13T21:52:11.425Z,5.35
2023-04-13T21:54:38.025Z,3.60
2023-04-13T21:57:04.838Z,4.70
2023-04-13T21:59:31.557Z,2.70
2023-04-13T22:01:58.291Z,4.18
2023-04-13T22:04:25.105Z,4.15
2023-04-13T22:06:51.797Z,2.58
2023-04-13T22:09:18.534Z,4.60
2023-04-13T22:11:45.145Z,4.25
2023-04-13T22:14:11.855Z,1.98
2023-04-13T22:16:38.477Z,4.97
2023-04-13T22:19:05.285Z,2.90
2023-04-13T22:21:34.914Z,5.47
2023-04-13T22:24:01.530Z,3.97
2023-04-13T22:26:28.097Z,4.70
2023-04-13T22:28:54.754Z,5.03
2023-04-13T22:31:21.388Z,2.35
2023-04-13T22:33:48.147Z,4.00
2023-04-13T22:36:19.871Z,2.38
2023-04-13T22:38:49.854Z,2.97
2023-04-13T22:41:16.561Z,2.33
2023-04-13T22:43:43.185Z,3.88
2023-04-13T22:46:09.827Z,2.90
2023-04-13T22:48:36.491Z,4.03
2023-04-13T22:51:06.093Z,3.30
2023-04-13T22:53:32.718Z,2.58
2023-04-13T22:56:00.853Z,2.88
2023-04-13T22:58:27.690Z,2.20
2023-04-13T23:00:54.362Z,4.25
2023-04-13T23:03:21.530Z,2.88
2023-04-13T23:05:48.363Z,4.50
2023-04-13T23:08:14.993Z,3.00
2023-04-13T23:10:41.663Z,2.67
2023-04-13T23:13:08.235Z,3.72
2023-04-13T23:15:34.863Z,2.30
2023-04-13T23:18:02.681Z,3.25
2023-04-13T23:20:29.544Z,3.30
2023-04-13T23:22:56.145Z,3.05
2023-04-13T23:25:23.023Z,4.45
2023-04-13T23:27:49.637Z,2.97
2023-04-13T23:30:16.424Z,3.35
2023-04-13T23:32:43.065Z,3.40
2023-04-13T23:35:10.038Z,4.72
2023-04-13T23:37:36.579Z,3.53
2023-04-13T23:40:03.893Z,3.85
2023-04-13T23:42:33.198Z,3.60
2023-04-13T23:45:02.739Z,4.10
2023-04-13T23:47:29.360Z,4.97
2023-04-13T23:49:56.011Z,4.10
2023-04-13T23:52:22.699Z,4.40
2023-04-13T23:54:49.251Z,4.10
2023-04-13T23:57:15.912Z,4.78
2023-04-13T23:59:42.544Z,4.47
